createdAt,value
2019-02-03T00:00:12.303Z,99.31
2019-02-03T00:02:42.836Z,99.32
2019-02-03T00:05:12.419Z,99.46
2019-02-03T00:07:40.925Z,99.87
2019-02-03T00:10:10.313Z,99.77
2019-02-03T00:12:38.861Z,99.84
2019-02-03T00:15:10.387Z,100.00
2019-02-03T00:17:38.971Z,100.00
2019-02-03T00:20:11.443Z,99.99
2019-02-03T00:22:40.312Z,100.00
2019-02-03T00:25:09.938Z,99.91
2019-02-03T00:27:38.418Z,99.88
2019-02-03T00:30:12.464Z,99.76
2019-02-03T00:32:40.994Z,99.66
2019-02-03T00:35:09.857Z,99.68
2019-02-03T00:37:38.370Z,99.61
2019-02-03T00:40:12.224Z,99.68
2019-02-03T00:42:40.703Z,99.76
2019-02-03T00:45:12.236Z,99.62
2019-02-03T00:47:41.087Z,99.47
2019-02-03T00:50:16.547Z,99.47
2019-02-03T00:52:44.977Z,99.33
2019-02-03T00:55:16.302Z,99.17
2019-02-03T00:57:44.877Z,99.02
2019-02-03T01:00:16.403Z,98.90
2019-02-03T01:02:45.015Z,98.71
2019-02-03T01:05:16.346Z,98.65
2019-02-03T01:07:45.084Z,98.54
2019-02-03T01:10:19.528Z,98.57
2019-02-03T01:12:48.271Z,98.52
2019-02-03T01:15:17.033Z,98.52
2019-02-03T01:17:45.536Z,98.35
2019-02-03T01:20:19.499Z,98.35
2019-02-03T01:22:48.441Z,98.42
2019-02-03T01:25:17.328Z,98.41
2019-02-03T01:27:46.064Z,98.31
2019-02-03T01:30:17.545Z,98.45
2019-02-03T01:32:46.026Z,98.29
2019-02-03T01:35:14.764Z,98.14
2019-02-03T01:37:43.224Z,98.35
2019-02-03T01:40:14.800Z,98.39
2019-02-03T01:42:43.280Z,98.56
2019-02-03T01:45:20.313Z,98.55
2019-02-03T01:47:48.806Z,98.69
2019-02-03T01:50:17.364Z,98.80
2019-02-03T01:52:46.072Z,98.63
2019-02-03T01:55:19.995Z,98.79
2019-02-03T01:57:50.246Z,99.12
2019-02-03T02:00:20.949Z,99.00
2019-02-03T02:02:49.485Z,98.87
2019-02-03T02:05:18.140Z,99.19
2019-02-03T02:07:51.678Z,99.23
2019-02-03T02:10:19.643Z,99.15
2019-02-03T02:12:48.110Z,99.29
2019-02-03T02:15:20.952Z,99.30
2019-02-03T02:17:50.260Z,99.42
2019-02-03T02:20:23.763Z,99.46
2019-02-03T02:22:52.385Z,99.73
2019-02-03T02:25:20.938Z,99.74
2019-02-03T02:27:49.469Z,99.96
2019-02-03T02:30:21.033Z,99.84
2019-02-03T02:32:49.502Z,99.90
2019-02-03T02:35:18.018Z,99.81
2019-02-03T02:37:48.222Z,99.74
2019-02-03T02:40:18.694Z,99.68
2019-02-03T02:42:47.201Z,99.73
2019-02-03T02:45:16.817Z,99.69
2019-02-03T02:47:45.348Z,99.64
2019-02-03T02:50:29.025Z,99.62
2019-02-03T02:52:57.506Z,99.63
2019-02-03T02:55:25.986Z,99.55
2019-02-03T02:57:54.477Z,99.54
2019-02-03T03:00:24.707Z,99.53
2019-02-03T03:02:53.305Z,99.49
2019-02-03T03:05:22.029Z,99.44
2019-02-03T03:07:50.890Z,99.47
2019-02-03T03:10:20.476Z,99.46
2019-02-03T03:12:49.820Z,99.38
2019-02-03T03:15:20.592Z,99.41
2019-02-03T03:17:49.513Z,99.40
2019-02-03T03:20:19.918Z,99.50
2019-02-03T03:22:50.240Z,99.51
2019-02-03T03:25:21.081Z,99.43
2019-02-03T03:27:49.934Z,99.36
2019-02-03T03:30:26.683Z,99.38
2019-02-03T03:32:55.273Z,99.71
2019-02-03T03:35:24.679Z,99.99
2019-02-03T03:37:53.215Z,99.96
2019-02-03T03:40:23.917Z,99.81
2019-02-03T03:42:52.561Z,99.64
2019-02-03T03:45:21.167Z,99.57
2019-02-03T03:47:49.786Z,99.78
2019-02-03T03:50:19.565Z,99.79
2019-02-03T03:52:48.122Z,99.54
2019-02-03T03:55:16.604Z,99.63
2019-02-03T03:57:45.363Z,99.50
2019-02-03T04:00:19.445Z,99.44
2019-02-03T04:02:48.650Z,99.50
2019-02-03T04:05:17.268Z,99.71
2019-02-03T04:07:45.827Z,99.68
2019-02-03T04:10:19.574Z,99.80
2019-02-03T04:12:49.362Z,100.00
2019-02-03T04:15:19.543Z,100.00
2019-02-03T04:17:48.657Z,100.00
2019-02-03T04:20:28.398Z,100.00
2019-02-03T04:22:56.912Z,100.00
2019-02-03T04:25:25.452Z,100.00
2019-02-03T04:27:53.950Z,100.00
2019-02-03T04:30:27.006Z,100.00
2019-02-03T04:32:56.772Z,99.77
2019-02-03T04:35:25.304Z,99.84
2019-02-03T04:37:53.798Z,99.82
2019-02-03T04:40:22.907Z,100.00
2019-02-03T04:42:51.512Z,100.00
2019-02-03T04:45:22.858Z,99.91
2019-02-03T04:47:50.486Z,99.88
2019-02-03T04:50:22.762Z,100.00
2019-02-03T04:52:51.253Z,99.87
2019-02-03T04:55:21.741Z,99.70
2019-02-03T04:57:50.223Z,99.52
2019-02-03T05:00:23.549Z,99.68
2019-02-03T05:02:52.108Z,99.79
2019-02-03T05:05:20.917Z,99.82
2019-02-03T05:07:49.482Z,99.66
2019-02-03T05:10:19.590Z,99.47
2019-02-03T05:12:48.217Z,99.32
2019-02-03T05:15:21.878Z,99.29
2019-02-03T05:17:50.980Z,99.18
2019-02-03T05:20:22.324Z,99.47
2019-02-03T05:22:50.804Z,99.59
2019-02-03T05:25:19.279Z,99.65
2019-02-03T05:27:47.768Z,99.58
2019-02-03T05:30:19.297Z,99.71
2019-02-03T05:32:47.783Z,100.00
2019-02-03T05:35:16.636Z,100.00
2019-02-03T05:37:45.138Z,100.00
2019-02-03T05:40:15.766Z,100.00
2019-02-03T05:42:44.228Z,100.00
2019-02-03T05:45:15.744Z,100.00
2019-02-03T05:47:44.254Z,100.00
2019-02-03T05:50:15.564Z,100.00
2019-02-03T05:52:44.198Z,100.00
2019-02-03T05:55:13.440Z,100.00
2019-02-03T05:57:42.591Z,100.00
2019-02-03T06:00:14.080Z,100.00
2019-02-03T06:02:43.051Z,100.00
2019-02-03T06:05:11.609Z,100.00
2019-02-03T06:07:40.088Z,100.00
2019-02-03T06:10:11.650Z,100.00
2019-02-03T06:12:40.180Z,100.00
2019-02-03T06:15:10.017Z,100.00
2019-02-03T06:17:38.570Z,100.00
2019-02-03T06:20:10.465Z,100.00
2019-02-03T06:22:38.946Z,100.00
2019-02-03T06:25:09.790Z,100.00
2019-02-03T06:27:38.268Z,100.00
2019-02-03T06:30:22.195Z,100.00
2019-02-03T06:32:51.018Z,100.00
2019-02-03T06:35:19.532Z,100.00
2019-02-03T06:37:47.994Z,100.00
2019-02-03T06:40:16.478Z,100.00
2019-02-03T06:42:44.970Z,100.00
2019-02-03T06:45:33.517Z,100.00
2019-02-03T06:48:01.992Z,100.00
2019-02-03T06:50:30.487Z,100.00
2019-02-03T06:53:01.156Z,100.00
2019-02-03T06:55:29.619Z,100.00
2019-02-03T06:57:58.108Z,100.00
2019-02-03T07:00:26.608Z,100.00
2019-02-03T07:02:55.098Z,100.00
2019-02-03T07:05:23.619Z,100.00
2019-02-03T07:07:52.081Z,100.00
2019-02-03T07:10:20.583Z,100.00
2019-02-03T07:12:49.063Z,100.00
2019-02-03T07:15:17.573Z,100.00
2019-02-03T07:17:46.031Z,100.00
2019-02-03T07:20:18.774Z,100.00
2019-02-03T07:22:47.259Z,100.00
2019-02-03T07:25:15.562Z,100.00
2019-02-03T07:27:44.119Z,100.00
2019-02-03T07:30:18.225Z,100.00
2019-02-03T07:32:46.710Z,100.00
2019-02-03T07:35:15.291Z,100.00
2019-02-03T07:37:43.765Z,100.00
2019-02-03T07:40:21.207Z,100.00
2019-02-03T07:42:49.683Z,100.00
2019-02-03T07:45:18.198Z,100.00
2019-02-03T07:47:47.076Z,100.00
2019-02-03T07:50:16.701Z,100.00
2019-02-03T07:52:45.445Z,100.00
2019-02-03T07:55:14.788Z,100.00
2019-02-03T07:57:43.630Z,100.00
2019-02-03T08:00:19.599Z,100.00
2019-02-03T08:02:48.212Z,100.00
2019-02-03T08:05:16.918Z,100.00
2019-02-03T08:07:45.457Z,100.00
2019-02-03T08:10:24.348Z,100.00
2019-02-03T08:12:46.470Z,100.00
2019-02-03T08:15:19.669Z,100.00
2019-02-03T08:17:48.154Z,100.00
2019-02-03T08:20:25.203Z,100.00
2019-02-03T08:22:53.747Z,100.00
2019-02-03T08:25:22.335Z,100.00
2019-02-03T08:27:50.811Z,100.00
2019-02-03T08:30:22.363Z,100.00
2019-02-03T08:32:50.845Z,100.00
2019-02-03T08:35:20.022Z,100.00
2019-02-03T08:37:48.670Z,100.00
2019-02-03T08:40:36.136Z,100.00
2019-02-03T08:42:55.942Z,100.00
2019-02-03T08:45:26.032Z,100.00
2019-02-03T08:47:54.498Z,100.00
2019-02-03T08:50:24.140Z,100.00
2019-02-03T08:52:52.979Z,100.00
2019-02-03T08:55:21.459Z,100.00
2019-02-03T08:57:49.939Z,100.00
2019-02-03T09:00:24.426Z,100.00
2019-02-03T09:02:52.911Z,100.00
2019-02-03T09:05:21.392Z,100.00
2019-02-03T09:07:50.141Z,100.00
2019-02-03T09:10:20.946Z,100.00
2019-02-03T09:12:49.436Z,100.00
2019-02-03T09:15:22.891Z,100.00
2019-02-03T09:17:51.551Z,100.00
2019-02-03T09:20:22.992Z,100.00
2019-02-03T09:22:51.483Z,100.00
2019-02-03T09:25:19.968Z,100.00
2019-02-03T09:27:48.479Z,100.00
2019-02-03T09:30:19.916Z,100.00
2019-02-03T09:32:48.412Z,100.00
2019-02-03T09:35:17.012Z,100.00
2019-02-03T09:37:45.581Z,100.00
2019-02-03T09:40:19.266Z,100.00
2019-02-03T09:42:48.008Z,100.00
2019-02-03T09:45:19.520Z,100.00
2019-02-03T09:47:48.296Z,100.00
2019-02-03T09:50:27.736Z,100.00
2019-02-03T09:52:57.967Z,100.00
2019-02-03T09:55:26.574Z,100.00
2019-02-03T09:57:55.214Z,100.00
2019-02-03T10:00:26.884Z,100.00
2019-02-03T10:02:56.722Z,100.00
2019-02-03T10:05:25.870Z,100.00
2019-02-03T10:07:54.513Z,100.00
2019-02-03T10:10:25.861Z,100.00
2019-02-03T10:12:54.804Z,100.00
2019-02-03T10:15:23.285Z,100.00
2019-02-03T10:17:51.789Z,100.00
2019-02-03T10:20:22.725Z,100.00
2019-02-03T10:22:51.289Z,100.00
2019-02-03T10:25:25.377Z,100.00
2019-02-03T10:27:53.936Z,100.00
2019-02-03T10:30:23.646Z,100.00
2019-02-03T10:32:52.283Z,100.00
2019-02-03T10:35:26.085Z,100.00
2019-02-03T10:37:54.926Z,100.00
2019-02-03T10:40:26.323Z,100.00
2019-02-03T10:42:57.164Z,100.00
2019-02-03T10:45:26.078Z,100.00
2019-02-03T10:47:54.567Z,100.00
2019-02-03T10:50:25.853Z,100.00
2019-02-03T10:52:54.901Z,100.00
2019-02-03T10:55:23.443Z,100.00
2019-02-03T10:57:51.933Z,100.00
2019-02-03T11:00:22.854Z,100.00
2019-02-03T11:02:51.501Z,100.00
2019-02-03T11:05:25.412Z,100.00
2019-02-03T11:07:54.421Z,100.00
2019-02-03T11:10:27.512Z,100.00
2019-02-03T11:12:55.996Z,100.00
2019-02-03T11:15:25.120Z,100.00
2019-02-03T11:17:53.950Z,100.00
2019-02-03T11:20:30.781Z,100.00
2019-02-03T11:22:59.426Z,100.00
2019-02-03T11:25:30.252Z,100.00
2019-02-03T11:27:58.902Z,100.00
2019-02-03T11:30:31.512Z,100.00
2019-02-03T11:33:05.327Z,100.00
2019-02-03T11:35:33.256Z,100.00
2019-02-03T11:38:03.628Z,100.00
2019-02-03T11:40:37.304Z,100.00
2019-02-03T11:43:07.152Z,100.00
2019-02-03T11:45:40.753Z,100.00
2019-02-03T11:48:15.337Z,100.00
2019-02-03T11:50:45.268Z,100.00
2019-02-03T11:53:22.534Z,100.00
2019-02-03T11:55:53.630Z,100.00
2019-02-03T11:58:21.552Z,100.00
2019-02-03T12:00:50.375Z,100.00
2019-02-03T12:03:19.036Z,99.92
2019-02-03T12:05:47.506Z,99.86
2019-02-03T12:08:16.091Z,99.89
2019-02-03T12:10:44.563Z,99.48
2019-02-03T12:13:13.133Z,99.54
2019-02-03T12:15:41.669Z,99.27
2019-02-03T12:18:10.260Z,99.25
2019-02-03T12:20:38.751Z,99.32
2019-02-03T12:23:07.472Z,99.20
2019-02-03T12:25:38.581Z,99.24
2019-02-03T12:28:07.866Z,99.33
2019-02-03T12:30:36.700Z,99.24
2019-02-03T12:33:07.101Z,99.44
2019-02-03T12:35:36.231Z,99.31
2019-02-03T12:38:05.460Z,99.03
2019-02-03T12:40:39.131Z,98.88
2019-02-03T12:43:07.841Z,98.69
2019-02-03T12:45:36.823Z,98.66
2019-02-03T12:48:07.148Z,98.68
2019-02-03T12:50:35.812Z,98.64
2019-02-03T12:53:04.916Z,98.62
2019-02-03T12:55:33.673Z,98.82
2019-02-03T12:58:02.158Z,99.33
2019-02-03T13:00:33.399Z,99.75
2019-02-03T13:03:01.935Z,99.89
2019-02-03T13:05:31.985Z,100.00
2019-02-03T13:08:01.561Z,100.00
2019-02-03T13:10:32.677Z,100.00
2019-02-03T13:13:01.422Z,100.00
2019-02-03T13:15:33.810Z,100.00
2019-02-03T13:18:02.429Z,100.00
2019-02-03T13:20:33.951Z,100.00
2019-02-03T13:23:03.151Z,100.00
2019-02-03T13:25:31.674Z,100.00
2019-02-03T13:28:00.125Z,99.95
2019-02-03T13:30:31.515Z,99.86
2019-02-03T13:33:00.078Z,99.65
2019-02-03T13:35:29.312Z,99.41
2019-02-03T13:37:57.852Z,99.14
2019-02-03T13:40:27.466Z,98.92
2019-02-03T13:42:55.945Z,98.67
2019-02-03T13:45:26.172Z,98.33
2019-02-03T13:47:58.070Z,98.15
2019-02-03T13:50:28.878Z,98.06
2019-02-03T13:52:57.789Z,97.92
2019-02-03T13:55:29.587Z,98.10
2019-02-03T13:57:58.050Z,98.14
2019-02-03T14:00:42.080Z,97.99
2019-02-03T14:03:12.131Z,97.85
2019-02-03T14:05:40.812Z,97.71
2019-02-03T14:08:09.999Z,97.77
2019-02-03T14:10:38.498Z,97.76
2019-02-03T14:13:08.813Z,97.63
2019-02-03T14:15:38.199Z,97.49
2019-02-03T14:18:07.014Z,97.08
2019-02-03T14:20:35.497Z,97.16
2019-02-03T14:23:05.580Z,96.90
2019-02-03T14:25:35.646Z,96.83
2019-02-03T14:28:04.498Z,96.95
2019-02-03T14:30:41.665Z,96.90
2019-02-03T14:33:10.281Z,96.88
2019-02-03T14:35:40.245Z,96.86
2019-02-03T14:38:08.939Z,97.00
2019-02-03T14:40:37.600Z,96.96
2019-02-03T14:43:06.179Z,96.63
2019-02-03T14:45:35.636Z,96.51
2019-02-03T14:48:04.675Z,96.54
2019-02-03T14:50:33.159Z,96.16
2019-02-03T14:53:04.609Z,96.34
2019-02-03T14:55:35.740Z,96.44
2019-02-03T14:58:04.873Z,96.32
2019-02-03T15:00:41.952Z,96.41
2019-02-03T15:03:13.712Z,96.32
2019-02-03T15:05:42.268Z,96.23
2019-02-03T15:08:10.747Z,95.81
2019-02-03T15:10:39.327Z,95.66
2019-02-03T15:13:14.003Z,95.48
2019-02-03T15:15:39.575Z,95.15
2019-02-03T15:18:09.623Z,94.81
2019-02-03T15:20:38.169Z,94.96
2019-02-03T15:23:08.202Z,95.11
2019-02-03T15:25:38.255Z,94.93
2019-02-03T15:28:10.537Z,94.70
2019-02-03T15:30:41.250Z,94.66
2019-02-03T15:33:09.826Z,94.47
2019-02-03T15:35:38.592Z,94.36
2019-02-03T15:38:07.921Z,94.36
2019-02-03T15:40:36.465Z,94.48
2019-02-03T15:43:06.866Z,94.52
2019-02-03T15:45:35.416Z,94.46
2019-02-03T15:48:04.268Z,94.32
2019-02-03T15:50:32.735Z,94.44
2019-02-03T15:53:01.301Z,94.68
2019-02-03T15:55:33.883Z,94.24
2019-02-03T15:58:02.701Z,94.26
2019-02-03T16:00:46.207Z,94.33
2019-02-03T16:03:14.760Z,94.43
2019-02-03T16:05:43.232Z,94.22
2019-02-03T16:08:13.422Z,94.40
2019-02-03T16:10:41.969Z,94.33
2019-02-03T16:13:10.880Z,94.40
2019-02-03T16:15:39.448Z,94.08
2019-02-03T16:18:08.577Z,93.77
2019-02-03T16:20:37.148Z,94.01
2019-02-03T16:23:07.122Z,93.92
2019-02-03T16:25:35.694Z,93.78
2019-02-03T16:28:04.982Z,93.54
2019-02-03T16:30:38.667Z,93.53
2019-02-03T16:33:09.668Z,93.27
2019-02-03T16:35:38.579Z,93.49
2019-02-03T16:38:07.800Z,93.55
2019-02-03T16:40:36.741Z,93.87
2019-02-03T16:43:05.662Z,93.99
2019-02-03T16:45:34.815Z,94.01
2019-02-03T16:48:03.268Z,94.00
2019-02-03T16:50:32.970Z,94.04
2019-02-03T16:53:06.374Z,93.89
2019-02-03T16:55:35.032Z,93.84
2019-02-03T16:58:03.803Z,93.92
2019-02-03T17:00:33.108Z,94.03
2019-02-03T17:03:01.985Z,94.00
2019-02-03T17:05:31.759Z,94.23
2019-02-03T17:08:04.425Z,94.18
2019-02-03T17:10:33.044Z,94.26
2019-02-03T17:13:01.532Z,93.74
2019-02-03T17:15:45.230Z,93.74
2019-02-03T17:18:14.495Z,93.49
2019-02-03T17:20:43.046Z,93.24
2019-02-03T17:23:11.605Z,93.16
2019-02-03T17:25:42.982Z,93.21
2019-02-03T17:28:12.030Z,93.33
2019-02-03T17:30:40.554Z,92.70
2019-02-03T17:33:09.243Z,92.68
2019-02-03T17:35:37.782Z,92.78
2019-02-03T17:38:06.339Z,92.73
2019-02-03T17:40:34.872Z,93.03
2019-02-03T17:43:03.911Z,93.17
2019-02-03T17:45:32.389Z,93.25
2019-02-03T17:48:01.214Z,93.30
2019-02-03T17:50:33.477Z,93.41
2019-02-03T17:53:02.148Z,93.46
2019-02-03T17:55:30.629Z,93.66
2019-02-03T17:57:59.510Z,93.82
2019-02-03T18:00:33.865Z,93.87
2019-02-03T18:03:02.417Z,93.90
2019-02-03T18:05:30.971Z,93.84
2019-02-03T18:08:00.312Z,93.42
2019-02-03T18:10:28.788Z,93.37
2019-02-03T18:12:57.295Z,93.37
2019-02-03T18:15:25.820Z,93.26
2019-02-03T18:17:55.245Z,93.59
2019-02-03T18:20:25.917Z,93.74
2019-02-03T18:22:54.410Z,93.72
2019-02-03T18:25:23.339Z,93.68
2019-02-03T18:27:52.388Z,93.77
2019-02-03T18:30:25.658Z,93.72
2019-02-03T18:32:55.809Z,93.68
2019-02-03T18:35:24.423Z,93.79
2019-02-03T18:37:54.606Z,93.67
2019-02-03T18:40:23.536Z,93.73
2019-02-03T18:42:52.184Z,93.93
2019-02-03T18:45:22.686Z,93.86
2019-02-03T18:47:51.340Z,93.93
2019-02-03T18:50:21.937Z,94.05
2019-02-03T18:52:50.794Z,94.13
2019-02-03T18:55:22.070Z,94.06
2019-02-03T18:57:50.627Z,94.02
2019-02-03T19:00:27.845Z,94.12
2019-02-03T19:02:56.400Z,94.40
2019-02-03T19:05:27.805Z,94.47
2019-02-03T19:07:56.294Z,94.63
2019-02-03T19:10:26.615Z,94.39
2019-02-03T19:12:55.076Z,94.35
2019-02-03T19:15:25.913Z,94.18
2019-02-03T19:17:55.778Z,94.10
2019-02-03T19:20:36.009Z,94.19
2019-02-03T19:23:05.581Z,94.18
2019-02-03T19:25:34.142Z,94.08
2019-02-03T19:28:02.770Z,94.07
2019-02-03T19:30:31.708Z,94.08
2019-02-03T19:33:00.184Z,94.26
2019-02-03T19:35:30.689Z,94.25
2019-02-03T19:37:59.192Z,94.15
2019-02-03T19:40:33.005Z,94.17
2019-02-03T19:43:01.488Z,94.20
2019-02-03T19:45:32.152Z,94.14
2019-02-03T19:48:00.797Z,94.09
2019-02-03T19:50:32.076Z,94.06
2019-02-03T19:53:00.643Z,94.02
2019-02-03T19:55:29.247Z,93.98
2019-02-03T19:57:59.066Z,93.94
2019-02-03T20:00:32.810Z,93.96
2019-02-03T20:03:01.428Z,93.92
2019-02-03T20:05:29.893Z,93.74
2019-02-03T20:07:58.583Z,93.66
2019-02-03T20:10:29.361Z,93.57
2019-02-03T20:12:57.829Z,93.47
2019-02-03T20:15:26.495Z,93.45
2019-02-03T20:17:57.877Z,93.34
2019-02-03T20:20:28.114Z,93.29
2019-02-03T20:22:56.653Z,93.13
2019-02-03T20:25:25.850Z,92.99
2019-02-03T20:27:54.327Z,92.99
2019-02-03T20:30:37.380Z,93.02
2019-02-03T20:32:55.458Z,92.81
2019-02-03T20:35:26.193Z,92.75
2019-02-03T20:37:54.880Z,92.54
2019-02-03T20:40:37.950Z,92.39
2019-02-03T20:43:06.493Z,92.32
2019-02-03T20:45:36.239Z,92.25
2019-02-03T20:48:05.169Z,92.17
2019-02-03T20:50:33.804Z,92.27
2019-02-03T20:53:02.263Z,92.09
2019-02-03T20:55:30.758Z,92.03
2019-02-03T20:57:59.223Z,91.99
2019-02-03T21:00:35.615Z,92.09
2019-02-03T21:03:04.783Z,92.00
2019-02-03T21:05:33.915Z,91.87
2019-02-03T21:08:02.384Z,92.02
2019-02-03T21:10:31.338Z,92.01
2019-02-03T21:13:10.796Z,91.86
2019-02-03T21:15:33.954Z,91.91
2019-02-03T21:18:01.472Z,91.84
2019-02-03T21:20:37.542Z,91.80
2019-02-03T21:23:06.931Z,91.76
2019-02-03T21:25:35.479Z,91.69
2019-02-03T21:28:05.958Z,91.67
2019-02-03T21:30:36.698Z,91.64
2019-02-03T21:33:06.739Z,91.62
2019-02-03T21:35:35.225Z,91.69
2019-02-03T21:38:03.768Z,91.72
2019-02-03T21:40:32.542Z,91.74
2019-02-03T21:43:01.153Z,91.68
2019-02-03T21:45:29.849Z,91.64
2019-02-03T21:47:59.468Z,91.50
2019-02-03T21:50:29.716Z,91.59
2019-02-03T21:52:58.746Z,91.32
2019-02-03T21:55:27.380Z,91.20
2019-02-03T21:57:55.919Z,91.35
2019-02-03T22:00:30.203Z,91.42
2019-02-03T22:03:00.791Z,91.31
2019-02-03T22:05:29.726Z,91.28
2019-02-03T22:07:58.351Z,91.21
2019-02-03T22:10:29.446Z,91.26
2019-02-03T22:12:59.066Z,91.37
2019-02-03T22:15:27.637Z,91.21
2019-02-03T22:17:57.736Z,91.12
2019-02-03T22:20:26.563Z,91.27
2019-02-03T22:22:55.131Z,91.20
2019-02-03T22:25:23.695Z,91.18
2019-02-03T22:27:52.607Z,91.16
2019-02-03T22:30:33.045Z,91.17
2019-02-03T22:33:01.487Z,91.21
2019-02-03T22:35:30.155Z,91.34
2019-02-03T22:37:58.611Z,91.26
2019-02-03T22:40:27.551Z,91.38
2019-02-03T22:42:56.077Z,91.25
2019-02-03T22:45:25.727Z,91.01
2019-02-03T22:47:54.428Z,91.01
2019-02-03T22:50:27.942Z,91.14
2019-02-03T22:52:58.433Z,91.15
2019-02-03T22:55:26.926Z,91.27
2019-02-03T22:57:55.518Z,91.25
2019-02-03T23:00:47.062Z,91.26
2019-02-03T23:03:16.144Z,91.32
2019-02-03T23:05:44.668Z,91.41
2019-02-03T23:08:13.193Z,91.40
2019-02-03T23:10:41.766Z,91.37
2019-02-03T23:13:10.251Z,91.52
2019-02-03T23:15:39.380Z,91.60
2019-02-03T23:18:08.271Z,91.45
2019-02-03T23:20:36.846Z,91.50
2019-02-03T23:23:05.312Z,91.28
2019-02-03T23:25:33.812Z,91.20
2019-02-03T23:28:02.271Z,91.33
2019-02-03T23:30:30.756Z,91.56
2019-02-03T23:32:59.599Z,91.66
2019-02-03T23:35:28.156Z,91.60
2019-02-03T23:37:56.634Z,91.58
2019-02-03T23:40:25.182Z,91.77
2019-02-03T23:42:53.702Z,91.73
2019-02-03T23:45:22.177Z,91.61
2019-02-03T23:47:51.612Z,91.60
2019-02-03T23:50:21.534Z,91.75
2019-02-03T23:52:50.015Z,91.86
2019-02-03T23:55:18.453Z,91.83
2019-02-03T23:57:46.929Z,91.81
